Time;durP1;ratioP1;P1;durP2;ratioP2;P2;SDS_P1;SDS_P2;PMS_P1;PMS_P2;Temp;Humidity;BMP_temperature;BMP_pressure;BME280_temperature;BME280_humidity;BME280_pressure;Samples;Min_cycle;Max_cycle;Signal;HPM_P1;HPM_P2
2023/09/07 00:00:34;;;;;;;3.17;2.40;;;23.20;99.90;;;;;;4137316;28;20061;-68
2023/09/07 00:02:35;;;;;;;2.35;1.90;;;23.30;99.90;;;;;;4135100;28;20118;-66
2023/09/07 00:04:35;;;;;;;3.97;2.67;;;23.20;99.90;;;;;;4142545;28;20034;-66
2023/09/07 00:06:36;;;;;;;2.97;2.03;;;23.20;99.90;;;;;;4142529;28;20398;-69
2023/09/07 00:08:37;;;;;;;4.40;2.30;;;23.20;99.90;;;;;;4143631;28;20038;-66
2023/09/07 00:10:41;;;;;;;2.47;2.22;;;23.10;99.90;;;;;;4142467;28;20042;-66
2023/09/07 00:12:41;;;;;;;4.47;2.30;;;23.20;99.90;;;;;;4143603;28;20072;-66
2023/09/07 00:14:42;;;;;;;2.95;2.33;;;23.10;99.90;;;;;;4141620;28;20097;-66
2023/09/07 00:16:43;;;;;;;4.10;2.25;;;23.10;99.90;;;;;;4137246;28;20065;-66
2023/09/07 00:18:43;;;;;;;3.42;2.50;;;23.10;99.90;;;;;;4140395;28;20076;-65
2023/09/07 00:20:44;;;;;;;4.35;2.35;;;23.10;99.90;;;;;;4142383;28;20030;-66
2023/09/07 00:22:44;;;;;;;2.38;2.10;;;23.00;99.90;;;;;;4140837;28;20514;-66
2023/09/07 00:24:46;;;;;;;2.83;2.13;;;23.00;99.90;;;;;;4147791;28;20043;-67
2023/09/07 00:26:46;;;;;;;3.05;2.40;;;23.00;99.90;;;;;;4141990;28;20026;-66
2023/09/07 00:28:47;;;;;;;6.15;2.42;;;22.90;99.90;;;;;;4138250;28;20037;-65
2023/09/07 00:30:48;;;;;;;3.83;2.10;;;22.90;99.90;;;;;;4138936;28;20534;-66
2023/09/07 00:32:48;;;;;;;2.65;2.25;;;23.00;99.90;;;;;;4135346;28;20809;-65
2023/09/07 00:34:49;;;;;;;5.65;2.45;;;22.90;99.90;;;;;;4129608;28;20467;-65
2023/09/07 00:36:50;;;;;;;3.83;2.53;;;22.90;99.90;;;;;;4141780;28;20037;-66
2023/09/07 00:38:50;;;;;;;2.67;2.03;;;22.80;99.90;;;;;;4128629;28;20031;-66
2023/09/07 00:40:51;;;;;;;2.65;2.42;;;22.80;99.90;;;;;;4137354;28;20034;-65
2023/09/07 00:42:52;;;;;;;2.95;2.15;;;22.80;99.90;;;;;;4141957;28;20518;-66
2023/09/07 00:44:53;;;;;;;2.50;2.22;;;22.70;99.90;;;;;;4139942;28;20630;-65
2023/09/07 00:46:56;;;;;;;4.38;2.75;;;22.70;99.90;;;;;;4138051;28;20430;-66
2023/09/07 00:48:57;;;;;;;3.05;2.58;;;22.70;99.90;;;;;;4154933;28;20529;-66
2023/09/07 00:50:58;;;;;;;7.65;2.40;;;22.70;99.90;;;;;;4140472;28;20038;-66
2023/09/07 00:53:00;;;;;;;2.53;2.33;;;22.70;99.90;;;;;;4136940;28;20080;-67
2023/09/07 00:55:04;;;;;;;3.03;2.47;;;22.70;99.90;;;;;;4142797;28;20099;-66
2023/09/07 00:57:06;;;;;;;3.90;2.55;;;22.60;99.90;;;;;;4141754;28;20522;-65
2023/09/07 00:59:08;;;;;;;4.38;3.10;;;22.60;99.90;;;;;;4138524;28;20048;-66
2023/09/07 01:01:09;;;;;;;4.47;2.97;;;22.60;99.90;;;;;;4141747;28;20072;-65
2023/09/07 01:03:09;;;;;;;4.63;2.88;;;22.60;99.90;;;;;;4137581;28;20042;-66
2023/09/07 01:05:11;;;;;;;3.78;2.83;;;22.60;99.90;;;;;;4138874;28;20605;-66
2023/09/07 01:07:20;;;;;;;3.67;2.77;;;22.60;99.90;;;;;;4140086;28;20034;-66
2023/09/07 01:09:24;;;;;;;3.65;2.85;;;22.60;99.90;;;;;;4142550;28;20103;-66
2023/09/07 01:11:24;;;;;;;3.63;2.50;;;22.50;99.90;;;;;;4134217;28;20089;-66
2023/09/07 01:13:25;;;;;;;2.83;2.30;;;22.50;99.90;;;;;;4127628;28;20486;-66
2023/09/07 01:15:26;;;;;;;4.90;2.50;;;22.50;99.90;;;;;;4136206;28;20447;-65
2023/09/07 01:17:27;;;;;;;3.42;2.30;;;22.50;99.90;;;;;;4138818;28;20045;-67
2023/09/07 01:19:28;;;;;;;3.50;2.28;;;22.50;99.90;;;;;;4142359;28;20030;-68
2023/09/07 01:21:36;;;;;;;4.35;2.42;;;22.40;99.90;;;;;;4141622;28;20026;-68
2023/09/07 01:23:40;;;;;;;3.05;2.13;;;22.40;99.90;;;;;;4139139;28;20052;-67
2023/09/07 01:25:41;;;;;;;2.92;2.42;;;22.40;99.90;;;;;;4146537;28;20030;-66
2023/09/07 01:27:43;;;;;;;2.90;2.40;;;22.40;99.90;;;;;;4142139;28;20034;-66
2023/09/07 01:29:43;;;;;;;5.32;3.05;;;22.40;99.90;;;;;;4139897;28;20177;-66
2023/09/07 01:31:44;;;;;;;3.88;2.42;;;22.30;99.90;;;;;;4138589;28;20085;-66
2023/09/07 01:33:44;;;;;;;5.72;3.00;;;22.40;99.90;;;;;;4142919;28;20045;-66
2023/09/07 01:35:46;;;;;;;3.80;2.70;;;22.30;99.90;;;;;;4141730;28;20064;-66
2023/09/07 01:37:47;;;;;;;3.58;2.72;;;22.30;99.90;;;;;;4120294;28;20042;-66
2023/09/07 01:39:49;;;;;;;3.20;2.70;;;22.30;99.90;;;;;;4141312;28;20364;-66
2023/09/07 01:41:49;;;;;;;5.03;3.08;;;22.30;99.90;;;;;;4138601;28;20034;-67
2023/09/07 01:43:50;;;;;;;4.20;2.83;;;22.30;99.90;;;;;;4131781;28;20050;-65
2023/09/07 01:45:51;;;;;;;4.80;2.78;;;22.20;99.90;;;;;;4136658;28;20050;-66
2023/09/07 01:47:52;;;;;;;3.72;2.67;;;22.20;99.90;;;;;;4130756;28;20113;-71
2023/09/07 01:49:52;;;;;;;4.28;3.13;;;22.20;99.90;;;;;;4137743;28;20591;-71
2023/09/07 01:51:53;;;;;;;4.18;2.85;;;22.20;99.90;;;;;;4140049;28;20043;-71
2023/09/07 01:53:54;;;;;;;3.28;2.50;;;22.20;99.90;;;;;;4141850;28;20898;-71
2023/09/07 01:55:59;;;;;;;4.22;2.90;;;22.10;99.90;;;;;;4139388;28;20030;-71
2023/09/07 01:57:59;;;;;;;3.28;2.10;;;22.10;99.90;;;;;;4133307;28;20026;-66
2023/09/07 02:00:00;;;;;;;3.13;2.28;;;22.10;99.90;;;;;;4141824;28;20379;-66
2023/09/07 02:02:00;;;;;;;3.38;2.33;;;22.00;99.90;;;;;;4137188;28;20034;-66
2023/09/07 02:04:01;;;;;;;3.38;2.83;;;21.90;99.90;;;;;;4142105;28;20489;-66
2023/09/07 02:06:02;;;;;;;3.70;2.63;;;21.80;99.90;;;;;;4141435;28;20042;-66
2023/09/07 02:08:03;;;;;;;4.60;3.40;;;21.70;99.90;;;;;;4135393;28;20030;-67
2023/09/07 02:10:04;;;;;;;7.57;4.15;;;21.70;99.90;;;;;;4127425;28;20084;-66
2023/09/07 02:12:05;;;;;;;5.45;3.25;;;21.70;99.90;;;;;;4136552;28;20088;-66
2023/09/07 02:14:06;;;;;;;5.32;3.10;;;21.70;99.90;;;;;;4142700;28;20030;-66
2023/09/07 02:16:07;;;;;;;4.82;3.00;;;21.70;99.90;;;;;;4140865;28;20120;-66
2023/09/07 02:18:07;;;;;;;3.90;3.00;;;21.70;99.90;;;;;;4135845;28;20029;-66
2023/09/07 02:20:10;;;;;;;4.85;3.03;;;21.60;99.90;;;;;;4141198;28;20037;-66
2023/09/07 02:22:11;;;;;;;4.05;2.95;;;21.70;99.90;;;;;;4143819;28;20029;-66
2023/09/07 02:24:12;;;;;;;5.00;3.05;;;21.70;99.90;;;;;;4138802;28;20054;-66
2023/09/07 02:26:12;;;;;;;6.05;3.25;;;21.70;99.90;;;;;;4139434;28;20034;-67
2023/09/07 02:28:13;;;;;;;3.45;3.13;;;21.70;99.90;;;;;;4140291;28;20046;-66
2023/09/07 02:30:13;;;;;;;5.70;3.30;;;21.70;99.90;;;;;;4140721;28;20044;-67
2023/09/07 02:32:14;;;;;;;3.50;2.83;;;21.70;99.90;;;;;;4141599;28;20041;-66
2023/09/07 02:34:15;;;;;;;4.07;3.25;;;21.70;99.90;;;;;;4126652;28;20117;-66
2023/09/07 02:36:15;;;;;;;6.95;3.03;;;21.70;99.90;;;;;;4131946;28;20039;-66
2023/09/07 02:38:16;;;;;;;4.07;3.38;;;21.60;99.90;;;;;;4136374;28;20045;-66
2023/09/07 02:40:17;;;;;;;5.22;3.45;;;21.70;99.90;;;;;;4139505;28;20061;-66
2023/09/07 02:42:18;;;;;;;4.25;2.92;;;21.70;99.90;;;;;;4144674;28;20073;-65
2023/09/07 02:44:18;;;;;;;4.72;3.60;;;21.70;99.90;;;;;;4144575;28;20034;-66
2023/09/07 02:46:19;;;;;;;4.95;2.90;;;21.60;99.90;;;;;;4142785;28;20026;-65
2023/09/07 02:48:20;;;;;;;4.32;3.10;;;21.60;99.90;;;;;;4144744;28;20026;-67
2023/09/07 02:50:21;;;;;;;3.45;2.53;;;21.60;99.90;;;;;;4140402;28;20402;-66
2023/09/07 02:52:21;;;;;;;4.40;3.20;;;21.60;99.90;;;;;;4130640;28;20435;-66
2023/09/07 02:54:23;;;;;;;3.45;2.97;;;21.60;99.90;;;;;;4140590;28;20034;-67
2023/09/07 02:56:25;;;;;;;3.70;3.03;;;21.50;99.90;;;;;;4142325;28;20109;-66
2023/09/07 02:58:25;;;;;;;5.30;3.33;;;21.50;99.90;;;;;;4143251;28;20525;-71
2023/09/07 03:00:26;;;;;;;4.95;3.45;;;21.50;99.90;;;;;;4136068;28;20073;-71
2023/09/07 03:02:28;;;;;;;5.00;3.42;;;21.50;99.90;;;;;;4137487;28;20034;-71
2023/09/07 03:04:28;;;;;;;4.65;3.00;;;21.50;99.90;;;;;;4139579;28;20042;-71
2023/09/07 03:06:29;;;;;;;4.38;3.30;;;21.50;99.90;;;;;;4142059;28;20427;-71
2023/09/07 03:08:30;;;;;;;4.60;3.50;;;21.50;99.90;;;;;;4133304;28;20103;-66
2023/09/07 03:10:30;;;;;;;4.95;3.08;;;21.40;99.90;;;;;;4136616;28;20042;-65
2023/09/07 03:12:31;;;;;;;5.03;3.28;;;21.40;99.90;;;;;;4141898;28;20034;-66
2023/09/07 03:14:32;;;;;;;5.95;3.28;;;21.40;99.90;;;;;;4141267;28;20490;-65
2023/09/07 03:16:32;;;;;;;4.18;3.30;;;21.40;99.90;;;;;;4141393;28;20050;-65
2023/09/07 03:18:33;;;;;;;4.68;3.13;;;21.40;99.90;;;;;;4148814;28;20038;-66
2023/09/07 03:20:34;;;;;;;4.78;3.35;;;21.40;99.90;;;;;;4142157;28;20490;-65
2023/09/07 03:22:34;;;;;;;4.40;3.25;;;21.40;99.90;;;;;;4135132;28;20129;-65
2023/09/07 03:24:35;;;;;;;5.03;3.58;;;21.30;99.90;;;;;;4139948;28;20040;-65
2023/09/07 03:26:36;;;;;;;5.00;3.55;;;21.30;99.90;;;;;;4131288;28;20085;-65
2023/09/07 03:28:36;;;;;;;3.65;3.05;;;21.30;99.90;;;;;;4132974;28;22393;-66
2023/09/07 03:30:37;;;;;;;4.30;3.42;;;21.30;99.90;;;;;;4141868;28;20598;-65
2023/09/07 03:32:38;;;;;;;4.05;3.28;;;21.30;99.90;;;;;;4136453;28;20035;-67
2023/09/07 03:34:39;;;;;;;4.32;2.80;;;21.30;99.90;;;;;;4140544;28;20545;-65
2023/09/07 03:36:39;;;;;;;3.90;3.28;;;21.20;99.90;;;;;;4133171;28;20095;-66
2023/09/07 03:38:40;;;;;;;3.95;2.53;;;21.20;99.90;;;;;;4143384;28;20070;-65
2023/09/07 03:40:41;;;;;;;4.32;2.85;;;21.10;99.90;;;;;;4143678;28;20037;-66
2023/09/07 03:42:43;;;;;;;4.03;2.75;;;21.10;99.90;;;;;;4143957;28;20033;-65
2023/09/07 03:44:43;;;;;;;4.68;3.13;;;21.10;99.90;;;;;;4141234;28;20129;-65
2023/09/07 03:46:44;;;;;;;4.22;2.75;;;21.10;99.90;;;;;;4138342;28;20089;-64
2023/09/07 03:48:45;;;;;;;4.35;2.95;;;21.10;99.90;;;;;;4130345;28;20562;-64
2023/09/07 03:50:45;;;;;;;3.33;2.60;;;21.10;99.90;;;;;;4138321;28;20050;-65
2023/09/07 03:52:46;;;;;;;5.07;3.00;;;21.10;99.90;;;;;;4144780;28;20037;-64
2023/09/07 03:54:46;;;;;;;5.47;2.75;;;21.00;99.90;;;;;;4143604;28;20046;-64
2023/09/07 03:56:47;;;;;;;5.78;3.17;;;21.00;99.90;;;;;;4141946;28;20034;-64
2023/09/07 03:58:48;;;;;;;3.20;2.80;;;21.00;99.90;;;;;;4143754;28;20391;-64
2023/09/07 04:00:49;;;;;;;6.38;3.05;;;21.00;99.90;;;;;;4141704;28;20060;-64
2023/09/07 04:02:49;;;;;;;3.97;2.83;;;21.00;99.90;;;;;;4134981;28;20053;-64
2023/09/07 04:04:52;;;;;;;4.45;2.85;;;21.00;99.90;;;;;;4125512;28;20026;-64
2023/09/07 04:06:52;;;;;;;4.68;3.28;;;21.00;99.90;;;;;;4142086;28;20038;-64
2023/09/07 04:08:53;;;;;;;6.75;3.88;;;20.90;99.90;;;;;;4138177;28;20373;-64
2023/09/07 04:10:53;;;;;;;4.13;2.95;;;20.90;99.90;;;;;;4140255;28;20034;-65
2023/09/07 04:12:54;;;;;;;3.85;3.00;;;20.90;99.90;;;;;;4142709;28;20033;-67
2023/09/07 04:14:55;;;;;;;5.15;2.97;;;20.90;99.90;;;;;;4142247;28;20395;-65
2023/09/07 04:16:56;;;;;;;4.20;2.83;;;20.90;99.90;;;;;;4140144;28;20042;-65
2023/09/07 04:18:56;;;;;;;3.70;2.88;;;20.80;99.90;;;;;;4142038;28;20037;-65
2023/09/07 04:21:07;;;;;;;5.30;2.83;;;20.80;99.90;;;;;;4136030;28;20077;-64
2023/09/07 04:23:07;;;;;;;4.38;2.95;;;20.80;99.90;;;;;;4136322;28;20034;-64
2023/09/07 04:25:08;;;;;;;4.60;3.28;;;20.70;99.90;;;;;;4137647;28;20041;-66
2023/09/07 04:27:09;;;;;;;4.88;3.42;;;20.70;99.90;;;;;;4142452;28;20097;-67
2023/09/07 04:29:11;;;;;;;4.35;3.35;;;20.60;99.90;;;;;;4142884;28;20040;-64
2023/09/07 04:31:12;;;;;;;3.95;2.92;;;20.50;99.90;;;;;;4141839;28;20045;-65
2023/09/07 04:33:12;;;;;;;6.15;3.60;;;20.50;99.90;;;;;;4136095;28;20029;-64
2023/09/07 04:35:13;;;;;;;4.90;3.65;;;20.50;99.90;;;;;;4134491;28;20034;-65
2023/09/07 04:37:14;;;;;;;4.82;3.58;;;20.50;99.90;;;;;;4140590;28;20034;-67
2023/09/07 04:39:15;;;;;;;6.28;3.60;;;20.40;99.90;;;;;;4132103;28;20057;-65
2023/09/07 04:41:16;;;;;;;5.68;3.80;;;20.40;99.90;;;;;;4146755;28;20030;-64
2023/09/07 04:43:16;;;;;;;5.47;3.33;;;20.40;99.90;;;;;;4136801;28;20058;-65
2023/09/07 04:45:17;;;;;;;4.95;3.58;;;20.40;99.90;;;;;;4134665;28;20450;-64
2023/09/07 04:47:18;;;;;;;5.38;3.50;;;20.40;99.90;;;;;;4133567;28;20065;-66
2023/09/07 04:49:18;;;;;;;5.85;3.03;;;20.40;99.90;;;;;;4145850;28;20697;-65
2023/09/07 04:51:20;;;;;;;5.28;3.58;;;20.40;99.90;;;;;;4137600;28;20057;-65
2023/09/07 04:53:21;;;;;;;4.72;3.13;;;20.40;99.90;;;;;;4130059;28;20455;-64
2023/09/07 04:55:21;;;;;;;6.53;3.95;;;20.30;99.90;;;;;;4117800;28;20046;-64
2023/09/07 04:57:22;;;;;;;4.75;3.38;;;20.30;99.90;;;;;;4141397;28;20037;-63
2023/09/07 04:59:22;;;;;;;4.20;3.20;;;20.30;99.90;;;;;;4136614;28;20033;-63
2023/09/07 05:01:23;;;;;;;3.92;2.92;;;20.40;99.90;;;;;;4151459;28;20022;-64
2023/09/07 05:03:24;;;;;;;4.00;2.97;;;20.30;99.90;;;;;;4131409;28;20030;-64
2023/09/07 05:05:25;;;;;;;7.20;3.63;;;20.30;99.90;;;;;;4128614;28;21302;-64
2023/09/07 05:07:26;;;;;;;3.83;3.08;;;20.30;99.90;;;;;;4143056;28;20096;-64
2023/09/07 05:09:29;;;;;;;5.18;3.50;;;20.30;99.90;;;;;;4143912;28;20080;-64
2023/09/07 05:11:30;;;;;;;5.00;3.60;;;20.30;99.90;;;;;;4143640;28;20117;-65
2023/09/07 05:13:31;;;;;;;7.63;3.17;;;20.30;99.90;;;;;;4139168;28;20022;-67
2023/09/07 05:15:32;;;;;;;5.43;3.60;;;20.30;99.90;;;;;;4142006;28;20038;-64
2023/09/07 05:17:32;;;;;;;4.82;3.00;;;20.30;99.90;;;;;;4136983;28;20109;-72
2023/09/07 05:19:34;;;;;;;5.18;3.25;;;20.30;99.90;;;;;;4152466;28;20029;-73
2023/09/07 05:21:34;;;;;;;3.85;2.83;;;20.30;99.90;;;;;;4140054;28;20597;-72
2023/09/07 05:23:35;;;;;;;4.90;2.85;;;20.30;99.90;;;;;;4139279;28;20034;-69
2023/09/07 05:25:43;;;;;;;3.90;2.97;;;20.30;99.90;;;;;;4143298;28;20030;-72
2023/09/07 05:27:44;;;;;;;5.40;2.90;;;20.30;99.90;;;;;;4138870;28;20033;-64
2023/09/07 05:29:45;;;;;;;5.60;2.70;;;20.30;99.90;;;;;;4137724;28;20038;-66
2023/09/07 05:31:46;;;;;;;4.47;3.13;;;20.30;99.90;;;;;;4137406;28;20054;-63
2023/09/07 05:33:46;;;;;;;5.97;3.67;;;20.20;99.90;;;;;;4136473;28;20425;-64
2023/09/07 05:35:47;;;;;;;4.82;3.08;;;20.20;99.90;;;;;;4126133;28;20046;-64
2023/09/07 05:37:49;;;;;;;4.25;3.13;;;20.20;99.90;;;;;;4141338;28;20033;-66
2023/09/07 05:39:49;;;;;;;4.35;3.10;;;20.20;99.90;;;;;;4136539;28;20458;-63
2023/09/07 05:41:50;;;;;;;6.22;3.63;;;20.20;99.90;;;;;;4152974;28;20033;-63
2023/09/07 05:43:51;;;;;;;6.18;3.47;;;20.20;99.90;;;;;;4146622;28;20411;-63
2023/09/07 05:45:51;;;;;;;6.10;3.17;;;20.20;99.90;;;;;;4140682;28;20560;-64
2023/09/07 05:47:52;;;;;;;4.03;3.10;;;20.20;99.90;;;;;;4143012;28;20042;-63
2023/09/07 05:49:52;;;;;;;4.25;3.10;;;20.20;99.90;;;;;;4137641;28;20064;-63
2023/09/07 05:51:53;;;;;;;5.70;3.30;;;20.20;99.90;;;;;;4136564;28;20046;-64
2023/09/07 05:53:55;;;;;;;4.43;3.47;;;20.20;99.90;;;;;;4135169;28;20038;-64
2023/09/07 05:55:56;;;;;;;3.97;2.90;;;20.20;99.90;;;;;;4129646;28;20054;-64
2023/09/07 05:57:57;;;;;;;5.10;3.08;;;20.20;99.90;;;;;;4135177;28;20048;-63
2023/09/07 05:59:58;;;;;;;6.38;3.90;;;20.30;99.90;;;;;;4136660;28;20038;-64
2023/09/07 06:01:58;;;;;;;4.95;3.40;;;20.30;99.90;;;;;;4135768;28;20041;-64
2023/09/07 06:03:59;;;;;;;5.22;3.65;;;20.30;99.90;;;;;;4130154;28;20770;-63
2023/09/07 06:06:00;;;;;;;9.15;3.55;;;20.30;99.90;;;;;;4126322;28;20037;-65
2023/09/07 06:08:00;;;;;;;5.00;3.22;;;20.30;99.90;;;;;;4129962;28;20038;-66
2023/09/07 06:10:01;;;;;;;4.55;3.42;;;20.40;99.90;;;;;;4130129;28;20042;-64
2023/09/07 06:12:05;;;;;;;4.47;3.45;;;20.40;99.90;;;;;;4139207;28;20054;-64
2023/09/07 06:14:05;;;;;;;6.28;3.58;;;20.40;99.90;;;;;;4139435;28;20038;-67
2023/09/07 06:16:06;;;;;;;4.95;3.50;;;20.50;99.90;;;;;;4141225;28;20045;-63
2023/09/07 06:18:06;;;;;;;7.72;3.67;;;20.50;99.90;;;;;;4141733;28;20044;-63
2023/09/07 06:20:08;;;;;;;6.93;3.72;;;20.50;99.90;;;;;;4143100;28;20034;-70
2023/09/07 06:22:09;;;;;;;7.07;3.87;;;20.60;99.90;;;;;;4143347;28;20160;-71
2023/09/07 06:24:09;;;;;;;9.80;3.92;;;20.60;99.90;;;;;;4140033;28;20068;-72
2023/09/07 06:26:10;;;;;;;4.78;3.40;;;20.70;99.90;;;;;;4137378;28;20091;-72
2023/09/07 06:28:12;;;;;;;9.30;3.30;;;20.70;99.90;;;;;;4136674;28;20452;-65
2023/09/07 06:30:13;;;;;;;5.45;3.50;;;20.90;99.90;;;;;;4137263;28;20088;-65
2023/09/07 06:32:14;;;;;;;5.25;2.90;;;21.10;99.90;;;;;;4139612;28;20450;-65
2023/09/07 06:34:15;;;;;;;6.78;3.33;;;21.30;99.90;;;;;;4141719;28;20065;-64
2023/09/07 06:36:16;;;;;;;6.80;3.55;;;21.60;99.90;;;;;;4137132;28;20030;-66
2023/09/07 06:38:16;;;;;;;6.53;2.97;;;21.90;99.90;;;;;;4138778;28;20041;-73
2023/09/07 06:40:17;;;;;;;5.18;3.15;;;22.30;99.90;;;;;;4137196;28;20042;-72
2023/09/07 06:42:18;;;;;;;5.15;3.17;;;22.60;99.90;;;;;;4139287;28;20041;-73
2023/09/07 06:44:19;;;;;;;4.63;3.15;;;23.00;99.90;;;;;;4130412;28;20439;-72
2023/09/07 06:46:19;;;;;;;4.35;3.10;;;23.30;99.90;;;;;;4130676;28;20092;-69
2023/09/07 06:48:20;;;;;;;5.00;3.33;;;23.70;99.90;;;;;;4135025;28;20042;-71
2023/09/07 06:50:21;;;;;;;4.80;3.25;;;24.00;99.90;;;;;;4134085;28;20038;-71
2023/09/07 06:52:22;;;;;;;6.57;3.33;;;24.30;99.90;;;;;;4135609;28;20089;-73
2023/09/07 06:54:22;;;;;;;3.97;2.80;;;24.70;99.90;;;;;;4137713;28;20034;-72
2023/09/07 06:56:23;;;;;;;5.07;3.00;;;25.00;99.90;;;;;;4133187;28;20038;-71
2023/09/07 06:58:24;;;;;;;6.22;3.28;;;25.30;99.90;;;;;;4131246;28;20038;-71
2023/09/07 07:00:25;;;;;;;3.88;3.08;;;25.60;99.90;;;;;;4131341;28;20472;-72
2023/09/07 07:02:25;;;;;;;4.57;3.00;;;25.90;99.90;;;;;;4132778;28;20455;-71
2023/09/07 07:04:26;;;;;;;7.00;3.40;;;26.30;99.90;;;;;;4130722;28;20372;-72
2023/09/07 07:06:27;;;;;;;4.10;2.85;;;26.50;99.00;;;;;;4131316;28;20044;-70
2023/09/07 07:08:27;;;;;;;3.92;2.67;;;26.70;99.10;;;;;;4133627;28;20061;-70
2023/09/07 07:10:28;;;;;;;5.88;3.13;;;27.00;97.50;;;;;;4127365;28;20046;-69
2023/09/07 07:12:29;;;;;;;4.32;3.22;;;27.20;96.90;;;;;;4126825;28;20037;-72
2023/09/07 07:14:30;;;;;;;3.97;2.47;;;27.40;96.40;;;;;;4127337;28;20109;-73
2023/09/07 07:16:30;;;;;;;5.82;2.80;;;27.60;95.60;;;;;;4138151;28;20050;-69
2023/09/07 07:18:31;;;;;;;4.00;3.10;;;27.80;95.60;;;;;;4142660;28;20030;-72
2023/09/07 07:20:32;;;;;;;4.78;3.03;;;28.00;95.70;;;;;;4140446;28;20101;-71
2023/09/07 07:22:35;;;;;;;7.00;3.45;;;28.10;94.50;;;;;;4142362;28;20115;-72
2023/09/07 07:24:35;;;;;;;4.68;3.30;;;28.30;94.60;;;;;;4140886;28;20506;-73
2023/09/07 07:26:36;;;;;;;6.03;3.45;;;28.40;94.00;;;;;;4141533;28;20038;-69
2023/09/07 07:28:36;;;;;;;5.75;3.72;;;28.60;93.40;;;;;;4141589;28;20462;-71
2023/09/07 07:30:42;;;;;;;7.95;3.50;;;28.70;93.00;;;;;;4137312;28;20526;-68
2023/09/07 07:32:43;;;;;;;6.57;3.50;;;28.90;94.20;;;;;;4140546;28;20527;-73
2023/09/07 07:34:43;;;;;;;5.53;3.80;;;29.00;92.10;;;;;;4140436;28;20074;-71
2023/09/07 07:36:44;;;;;;;5.43;3.10;;;29.10;91.20;;;;;;4140965;28;20040;-73
2023/09/07 07:38:44;;;;;;;6.00;3.53;;;29.30;91.60;;;;;;4140712;28;20045;-72
2023/09/07 07:40:46;;;;;;;7.47;3.42;;;29.40;91.30;;;;;;4140601;28;20062;-72
2023/09/07 07:42:47;;;;;;;7.40;3.63;;;29.40;90.10;;;;;;4141887;28;20038;-69
2023/09/07 07:44:48;;;;;;;4.97;3.47;;;29.50;89.50;;;;;;4139081;28;20042;-73
2023/09/07 07:46:48;;;;;;;4.53;2.95;;;29.60;90.00;;;;;;4134929;28;20525;-71
2023/09/07 07:48:49;;;;;;;7.85;3.92;;;29.60;89.00;;;;;;4140904;28;20688;-63
2023/09/07 07:50:50;;;;;;;9.77;4.03;;;29.60;90.00;;;;;;4134022;28;20450;-64
2023/09/07 07:52:50;;;;;;;7.93;3.20;;;29.60;88.30;;;;;;4137893;28;20120;-64
2023/09/07 07:54:51;;;;;;;5.00;2.95;;;29.60;88.50;;;;;;4137223;28;20065;-63
2023/09/07 07:56:51;;;;;;;5.55;3.35;;;29.50;88.60;;;;;;4140069;28;20042;-63
2023/09/07 07:58:52;;;;;;;6.70;3.00;;;29.40;88.20;;;;;;4136429;28;20128;-63
2023/09/07 08:00:53;;;;;;;4.18;2.88;;;29.40;88.30;;;;;;4137827;28;20038;-63
2023/09/07 08:02:53;;;;;;;4.45;2.65;;;29.50;89.40;;;;;;4139227;28;20440;-64
2023/09/07 08:04:54;;;;;;;6.57;3.75;;;29.60;89.90;;;;;;4129520;28;20080;-65
2023/09/07 08:06:58;;;;;;;4.53;3.00;;;29.60;89.80;;;;;;4134364;28;20093;-63
2023/09/07 08:08:58;;;;;;;5.97;3.15;;;29.60;89.50;;;;;;4123612;28;20440;-64
2023/09/07 08:11:02;;;;;;;8.82;3.20;;;29.60;89.00;;;;;;4129493;28;20088;-63
2023/09/07 08:13:03;;;;;;;7.65;3.15;;;29.60;88.40;;;;;;4141496;28;20097;-63
2023/09/07 08:15:04;;;;;;;6.22;3.40;;;29.40;88.30;;;;;;4134011;28;20073;-65
2023/09/07 08:17:05;;;;;;;5.18;3.03;;;29.40;88.30;;;;;;4136638;28;20046;-63
2023/09/07 08:19:06;;;;;;;7.68;3.28;;;29.50;88.90;;;;;;4131918;28;20065;-64
2023/09/07 08:21:06;;;;;;;8.77;3.40;;;29.50;88.90;;;;;;4137558;28;21074;-64
2023/09/07 08:23:09;;;;;;;4.22;2.97;;;29.40;89.40;;;;;;4128133;28;20042;-63
2023/09/07 08:25:13;;;;;;;6.10;2.63;;;29.50;89.20;;;;;;4131063;28;20034;-63
2023/09/07 08:27:18;;;;;;;3.97;2.75;;;29.30;89.10;;;;;;4153457;28;20045;-64
2023/09/07 08:29:20;;;;;;;4.85;2.83;;;29.40;89.10;;;;;;4135397;28;20033;-67
2023/09/07 08:31:22;;;;;;;5.18;2.88;;;29.40;90.20;;;;;;4142883;28;20044;-63
2023/09/07 08:33:28;;;;;;;4.77;2.57;;;29.40;88.70;;;;;;4143911;28;20098;-64
2023/09/07 08:35:30;;;;;;;5.03;2.97;;;29.30;88.90;;;;;;4142147;28;20040;-63
2023/09/07 08:37:31;;;;;;;5.22;3.17;;;29.40;89.60;;;;;;4155213;28;20095;-65
2023/09/07 08:39:34;;;;;;;7.32;3.72;;;29.40;89.30;;;;;;4154868;28;20048;-64
2023/09/07 08:41:41;;;;;;;7.18;3.58;;;29.40;87.40;;;;;;4144875;28;20038;-64
2023/09/07 08:43:46;;;;;;;4.65;3.08;;;29.30;89.00;;;;;;4145087;28;20101;-64
2023/09/07 08:45:57;;;;;;;6.35;3.13;;;29.30;88.30;;;;;;4133842;28;21633;-66
2023/09/07 08:47:59;;;;;;;4.00;2.70;;;29.30;87.70;;;;;;4143561;28;20026;-67
2023/09/07 08:50:01;;;;;;;2.97;2.50;;;29.30;89.10;;;;;;4131006;28;20112;-66
2023/09/07 08:52:04;;;;;;;4.20;2.55;;;29.40;89.30;;;;;;4124413;28;20049;-66
2023/09/07 08:54:07;;;;;;;3.60;2.67;;;29.40;89.00;;;;;;4125437;28;20041;-66
2023/09/07 08:56:10;;;;;;;4.95;3.20;;;29.50;88.30;;;;;;4132808;28;20431;-66
2023/09/07 08:58:10;;;;;;;4.68;2.88;;;29.30;86.60;;;;;;4133356;28;20485;-71
2023/09/07 09:00:16;;;;;;;4.13;2.78;;;29.40;87.40;;;;;;4133216;28;20113;-66
2023/09/07 09:02:16;;;;;;;5.78;3.10;;;29.40;86.70;;;;;;4142786;28;20119;-70
2023/09/07 09:04:21;;;;;;;4.32;2.90;;;29.30;87.30;;;;;;4140769;28;20033;-71
2023/09/07 09:06:24;;;;;;;3.50;2.80;;;29.40;87.40;;;;;;4135855;28;20026;-70
2023/09/07 09:08:24;;;;;;;4.32;2.85;;;29.50;88.10;;;;;;4137598;28;20046;-68
2023/09/07 09:10:25;;;;;;;4.20;2.90;;;29.60;86.50;;;;;;4135853;28;20153;-70
2023/09/07 09:12:26;;;;;;;5.20;2.60;;;29.60;87.90;;;;;;4138347;28;20410;-71
2023/09/07 09:14:27;;;;;;;3.08;2.58;;;29.70;87.60;;;;;;4139301;28;20116;-71
2023/09/07 09:16:28;;;;;;;5.47;2.70;;;29.80;87.80;;;;;;4139083;28;20042;-71
2023/09/07 09:18:29;;;;;;;3.90;2.70;;;29.80;86.90;;;;;;4137599;28;20026;-70
2023/09/07 09:20:30;;;;;;;6.32;2.88;;;29.80;85.20;;;;;;4138156;28;20033;-70
2023/09/07 09:22:30;;;;;;;4.88;2.95;;;29.90;87.40;;;;;;4138054;28;20029;-71
2023/09/07 09:24:34;;;;;;;7.55;2.78;;;29.90;87.90;;;;;;4139274;28;20080;-71
2023/09/07 09:26:39;;;;;;;6.20;3.33;;;29.90;88.40;;;;;;4137446;28;20033;-70
2023/09/07 09:28:40;;;;;;;5.88;3.65;;;29.90;85.80;;;;;;4137775;28;20398;-74
2023/09/07 09:30:44;;;;;;;8.57;2.97;;;29.80;85.30;;;;;;4137511;28;20033;-72
2023/09/07 09:32:46;;;;;;;7.43;2.80;;;29.90;85.40;;;;;;4140871;28;20050;-68
2023/09/07 09:34:50;;;;;;;6.57;3.08;;;30.00;88.20;;;;;;4153986;28;20050;-71
2023/09/07 09:36:51;;;;;;;4.95;2.85;;;30.00;86.80;;;;;;4136840;28;20043;-71
2023/09/07 09:38:55;;;;;;;4.10;2.85;;;30.10;86.20;;;;;;4150703;28;20411;-70
2023/09/07 09:40:56;;;;;;;6.30;3.38;;;30.10;87.00;;;;;;4129327;28;20034;-69
2023/09/07 09:42:59;;;;;;;4.43;2.75;;;30.00;87.00;;;;;;4132178;28;20069;-71
2023/09/07 09:45:00;;;;;;;6.13;3.17;;;30.10;86.40;;;;;;4140502;28;20030;-71
2023/09/07 09:47:00;;;;;;;4.15;2.95;;;30.10;86.40;;;;;;4128963;28;20377;-70
2023/09/07 09:49:02;;;;;;;5.43;3.30;;;30.10;85.90;;;;;;4139848;28;20152;-72
2023/09/07 09:51:03;;;;;;;4.18;2.88;;;30.10;86.60;;;;;;4148891;28;20037;-71
2023/09/07 09:53:06;;;;;;;4.60;3.15;;;30.10;86.60;;;;;;4147460;28;20496;-71
2023/09/07 09:55:08;;;;;;;6.82;2.88;;;30.20;86.60;;;;;;4133664;28;20113;-72
2023/09/07 09:57:09;;;;;;;5.57;3.00;;;30.20;86.30;;;;;;4141195;28;20048;-72
2023/09/07 09:59:09;;;;;;;3.97;2.67;;;30.20;84.80;;;;;;4138822;28;20109;-64
2023/09/07 10:01:13;;;;;;;5.97;3.10;;;30.20;85.40;;;;;;4144251;28;20406;-64
2023/09/07 10:03:23;;;;;;;5.43;3.15;;;30.20;87.00;;;;;;4147994;28;20041;-65
2023/09/07 10:05:25;;;;;;;2.75;2.47;;;30.20;85.80;;;;;;4139089;28;20089;-64
2023/09/07 10:07:42;;;;;;;3.28;2.70;;;30.10;83.80;;;;;;4146459;28;20490;-72
2023/09/07 10:09:43;;;;;;;4.57;2.53;;;30.10;82.90;;;;;;4143391;28;20065;-67
2023/09/07 10:11:50;;;;;;;3.38;2.90;;;30.00;83.20;;;;;;4143691;28;20096;-67
2023/09/07 10:13:58;;;;;;;3.35;2.45;;;30.10;84.60;;;;;;4144932;28;20537;-66
2023/09/07 10:16:09;;;;;;;5.30;2.90;;;30.00;82.70;;;;;;4153652;28;20572;-66
2023/09/07 10:18:15;;;;;;;3.88;3.03;;;30.00;81.60;;;;;;4135869;28;20037;-66
2023/09/07 10:20:17;;;;;;;4.35;2.63;;;29.90;82.90;;;;;;4142842;28;20030;-66
2023/09/07 10:22:22;;;;;;;;;;;30.00;83.20;;;;;;4144157;28;20033;-66
2023/09/07 10:24:30;;;;;;;4.50;2.80;;;29.90;82.40;;;;;;4142562;28;19913;-66
2023/09/07 10:26:31;;;;;;;4.13;2.55;;;29.80;83.00;;;;;;4145254;28;20033;-66
2023/09/07 10:28:32;;;;;;;3.60;2.50;;;29.80;83.10;;;;;;4148528;28;20172;-66
2023/09/07 10:30:32;;;;;;;2.83;2.50;;;29.90;82.50;;;;;;4156108;28;20030;-67
2023/09/07 10:32:40;;;;;;;3.78;2.72;;;29.90;81.80;;;;;;4143370;28;20037;-67